Time;durP1;ratioP1;P1;durP2;ratioP2;P2;SDS_P1;SDS_P2;PMS_P1;PMS_P2;Temp;Humidity;BMP_temperature;BMP_pressure;BME280_temperature;BME280_humidity;BME280_pressure;Samples;Min_cycle;Max_cycle;Signal;HPM_P1;HPM_P2
2021/12/24 00:01:07;;;;;;;3.85;3.42;;;27.10;99.90;;;;;;5047043;28;20029;-71
2021/12/24 00:03:35;;;;;;;4.82;3.30;;;27.30;99.90;;;;;;5047454;28;20044;-65
2021/12/24 00:06:05;;;;;;;4.05;3.22;;;27.40;99.90;;;;;;5048516;28;20061;-65
2021/12/24 00:08:32;;;;;;;6.47;4.03;;;27.40;99.90;;;;;;5048227;28;20410;-64
2021/12/24 00:11:01;;;;;;;5.55;3.75;;;27.50;99.90;;;;;;5048494;28;20025;-64
2021/12/24 00:13:38;;;;;;;7.85;4.32;;;27.40;99.90;;;;;;5048300;28;20055;-72
2021/12/24 00:16:22;;;;;;;10.27;4.53;;;27.40;99.90;;;;;;5045764;28;20439;-66
2021/12/24 00:19:02;;;;;;;6.53;4.60;;;27.60;99.90;;;;;;5047598;28;20032;-65
2021/12/24 00:22:19;;;;;;;6.03;4.50;;;27.60;99.90;;;;;;5037535;28;20032;-75
2021/12/24 00:35:32;;;;;;;5.95;5.18;;;27.70;99.90;;;;;;5043871;28;20027;-73
2021/12/24 00:38:04;;;;;;;6.00;4.20;;;27.90;99.90;;;;;;5043626;28;20021;-74
2021/12/24 00:40:38;;;;;;;7.70;5.20;;;28.20;99.90;;;;;;5043658;28;20024;-73
2021/12/24 00:43:05;;;;;;;6.13;5.53;;;28.40;99.90;;;;;;5043660;28;20601;-65
2021/12/24 00:45:37;;;;;;;6.03;5.43;;;28.40;99.90;;;;;;5043653;28;20416;-73
2021/12/24 00:48:06;;;;;;;6.97;5.25;;;28.30;99.90;;;;;;5043624;28;20086;-73
2021/12/24 00:56:21;;;;;;;9.05;6.35;;;27.80;99.90;;;;;;5044225;28;20106;-72
2021/12/24 00:58:48;;;;;;;8.60;6.68;;;27.80;99.90;;;;;;5041756;28;20059;-72
2021/12/24 01:01:16;;;;;;;9.23;5.97;;;27.70;99.90;;;;;;5042989;28;20875;-67
2021/12/24 01:03:43;;;;;;;6.47;5.60;;;27.90;99.90;;;;;;5043668;28;20366;-65
2021/12/24 01:06:10;;;;;;;9.60;6.78;;;28.40;99.90;;;;;;5044409;28;21215;-66
2021/12/24 01:08:37;;;;;;;14.20;9.30;;;29.00;99.90;;;;;;5043524;28;20032;-64
2021/12/24 01:11:07;;;;;;;8.77;7.32;;;29.30;99.90;;;;;;5042372;28;20025;-74
2021/12/24 01:13:34;;;;;;;12.25;6.82;;;29.40;99.90;;;;;;5043170;28;20040;-70
2021/12/24 01:16:08;;;;;;;9.07;6.88;;;29.80;99.60;;;;;;5043068;28;20433;-65
2021/12/24 01:24:11;;;;;;;6.68;5.85;;;30.20;98.20;;;;;;5040490;28;20035;-77
2021/12/24 01:26:59;;;;;;;10.90;6.55;;;30.40;97.50;;;;;;5041469;28;20066;-66
2021/12/24 01:42:59;;;;;;;6.75;5.90;;;31.40;93.80;;;;;;5045430;28;20111;-68
2021/12/24 01:45:28;;;;;;;5.88;4.90;;;31.60;93.30;;;;;;5046742;28;20043;-72
2021/12/24 01:48:03;;;;;;;7.72;5.18;;;31.30;93.10;;;;;;5046757;28;20017;-65
2021/12/24 01:50:35;;;;;;;10.25;5.03;;;30.80;94.20;;;;;;5045442;28;20044;-73
2021/12/24 01:53:05;;;;;;;5.57;5.07;;;30.90;94.50;;;;;;5046320;28;20036;-66
2021/12/24 01:55:32;;;;;;;5.18;4.68;;;31.30;93.20;;;;;;5044810;28;20144;-66
2021/12/24 01:58:00;;;;;;;5.82;4.40;;;31.60;92.50;;;;;;5046251;28;20061;-66
2021/12/24 02:00:31;;;;;;;7.20;4.57;;;31.90;91.60;;;;;;5046506;28;20500;-73
2021/12/24 02:02:59;;;;;;;8.10;6.43;;;31.70;91.70;;;;;;5046763;28;20024;-68
2021/12/24 02:05:26;;;;;;;6.25;4.60;;;31.40;92.40;;;;;;5046335;28;20036;-75
2021/12/24 02:07:53;;;;;;;7.97;5.45;;;30.90;93.40;;;;;;5046466;28;20024;-73
2021/12/24 02:10:21;;;;;;;10.75;4.20;;;30.30;96.00;;;;;;5044787;28;20052;-73
2021/12/24 02:12:49;;;;;;;5.20;2.58;;;30.00;97.10;;;;;;5046018;28;20060;-76
2021/12/24 02:15:31;;;;;;;5.88;2.70;;;29.70;97.30;;;;;;5046483;28;20225;-77
2021/12/24 02:18:19;;;;;;;4.05;2.53;;;29.40;98.00;;;;;;5045705;28;20028;-74
2021/12/24 02:28:46;;;;;;;4.40;2.80;;;30.30;96.40;;;;;;5045372;28;20162;-68
2021/12/24 02:31:17;;;;;;;6.63;2.47;;;29.80;97.00;;;;;;5044784;28;20052;-69
2021/12/24 02:33:44;;;;;;;5.30;2.72;;;30.40;97.30;;;;;;5045849;28;20016;-75
2021/12/24 02:36:12;;;;;;;4.72;2.60;;;30.90;95.80;;;;;;5044825;28;20353;-77
2021/12/24 02:38:39;;;;;;;4.97;2.97;;;31.00;96.00;;;;;;5045496;28;20021;-76
2021/12/24 02:41:08;;;;;;;4.80;2.50;;;30.50;95.60;;;;;;5046366;28;20067;-74
2021/12/24 02:43:36;;;;;;;6.30;2.72;;;29.80;96.90;;;;;;5044397;28;20300;-74
2021/12/24 02:46:10;;;;;;;4.97;2.55;;;29.90;97.60;;;;;;5045148;28;20037;-68
2021/12/24 02:54:11;;;;;;;5.30;2.90;;;30.60;96.10;;;;;;5044532;28;20300;-68
2021/12/24 02:56:40;;;;;;;3.72;2.40;;;30.60;96.00;;;;;;5045051;28;20052;-69
2021/12/24 02:59:12;;;;;;;6.60;3.05;;;30.90;96.20;;;;;;5045072;28;20117;-75
2021/12/24 03:01:42;;;;;;;6.72;2.53;;;31.40;95.00;;;;;;5045880;28;20104;-69
2021/12/24 03:04:10;;;;;;;4.45;3.03;;;31.00;94.70;;;;;;5042718;28;20033;-74
2021/12/24 03:06:46;;;;;;;4.07;2.78;;;30.80;94.80;;;;;;5043733;28;20106;-72
2021/12/24 03:09:15;;;;;;;6.88;2.95;;;30.70;95.60;;;;;;5045299;28;20056;-75
2021/12/24 03:11:44;;;;;;;4.10;2.60;;;31.00;94.70;;;;;;5044218;28;20021;-74
2021/12/24 03:14:11;;;;;;;7.00;3.33;;;30.90;95.10;;;;;;5041928;28;20486;-70
2021/12/24 03:16:40;;;;;;;5.22;2.60;;;30.80;97.10;;;;;;5044417;28;20021;-71
2021/12/24 03:19:08;;;;;;;3.75;3.08;;;31.50;94.00;;;;;;5042036;28;20033;-69
2021/12/24 03:21:51;;;;;;;3.85;2.80;;;31.30;94.40;;;;;;5045378;28;20028;-70
2021/12/24 03:26:46;;;;;;;5.15;2.60;;;31.50;94.00;;;;;;5044018;28;20642;-72
2021/12/24 03:29:16;;;;;;;4.45;2.72;;;30.90;93.90;;;;;;5043625;28;20483;-69
2021/12/24 03:31:44;;;;;;;5.40;3.00;;;30.80;94.40;;;;;;5044674;28;20029;-73
2021/12/24 03:34:14;;;;;;;4.82;2.72;;;31.20;93.90;;;;;;5042685;28;20063;-71
2021/12/24 03:36:41;;;;;;;3.65;2.42;;;31.60;94.20;;;;;;5044766;28;20084;-71
2021/12/24 03:39:09;;;;;;;4.35;2.47;;;32.20;93.50;;;;;;5044695;28;20068;-71
2021/12/24 03:41:37;;;;;;;4.07;2.45;;;31.60;92.50;;;;;;5045960;28;20069;-65
2021/12/24 03:44:07;;;;;;;5.25;2.80;;;30.80;93.50;;;;;;5046023;28;20036;-66
2021/12/24 03:47:19;;;;;;;5.85;3.30;;;30.60;95.00;;;;;;5046998;28;20035;-66
2021/12/24 03:54:59;;;;;;;7.03;3.00;;;31.90;91.80;;;;;;5044075;28;20028;-71
2021/12/24 03:57:41;;;;;;;4.07;2.80;;;32.60;92.70;;;;;;5044299;28;20082;-71
2021/12/24 04:00:17;;;;;;;5.15;2.97;;;33.10;92.00;;;;;;5044145;28;20033;-66
2021/12/24 04:02:46;;;;;;;4.13;3.10;;;33.10;91.10;;;;;;5044509;28;20033;-71
2021/12/24 04:05:14;;;;;;;6.20;2.95;;;33.80;89.30;;;;;;5044039;28;20547;-65
2021/12/24 04:07:42;;;;;;;5.72;2.97;;;33.70;85.10;;;;;;5044556;28;20124;-69
2021/12/24 04:12:54;;;;;;;4.55;2.70;;;32.40;90.60;;;;;;5041603;28;20906;-70
2021/12/24 04:15:21;;;;;;;6.50;2.88;;;32.50;88.70;;;;;;5042919;28;20025;-66
2021/12/24 04:17:49;;;;;;;4.22;3.03;;;32.60;87.20;;;;;;5043045;28;20089;-71
2021/12/24 04:25:47;;;;;;;4.15;2.97;;;32.40;91.00;;;;;;5042942;28;20091;-73
2021/12/24 04:28:14;;;;;;;5.35;3.30;;;33.30;89.10;;;;;;5041666;28;20060;-70
2021/12/24 04:30:47;;;;;;;4.85;2.67;;;34.00;86.10;;;;;;5041092;28;20024;-67
2021/12/24 04:33:25;;;;;;;4.38;2.70;;;34.70;82.80;;;;;;5041103;28;20032;-70
2021/12/24 04:35:59;;;;;;;10.32;3.90;;;34.30;85.30;;;;;;5040844;28;20174;-71
2021/12/24 04:52:10;;;;;;;3.50;2.70;;;32.00;86.20;;;;;;5042923;28;20461;-68
2021/12/24 05:03:06;;;;;;;5.40;2.45;;;31.50;91.00;;;;;;5040962;28;20040;-67
2021/12/24 05:10:41;;;;;;;6.03;2.50;;;31.10;91.90;;;;;;5042551;28;20053;-69
2021/12/24 05:13:10;;;;;;;4.60;2.53;;;31.10;91.60;;;;;;5045067;28;20035;-66
2021/12/24 05:15:39;;;;;;;7.05;2.63;;;31.00;92.50;;;;;;5046796;28;20021;-67
2021/12/24 05:23:41;;;;;;;5.95;2.67;;;30.20;94.40;;;;;;5047504;28;20048;-67
2021/12/24 05:26:09;;;;;;;5.95;3.08;;;29.40;95.90;;;;;;5047101;28;20052;-67
2021/12/24 05:28:38;;;;;;;7.15;2.42;;;29.00;97.00;;;;;;5047426;28;20021;-67
2021/12/24 05:31:05;;;;;;;3.83;2.42;;;28.90;98.10;;;;;;5045043;28;20032;-66
2021/12/24 05:33:33;;;;;;;9.18;2.60;;;29.70;97.30;;;;;;5045206;28;20084;-68
2021/12/24 05:36:00;;;;;;;7.68;2.63;;;30.10;96.90;;;;;;5045993;28;20384;-67
2021/12/24 05:38:27;;;;;;;4.32;2.05;;;30.60;95.70;;;;;;5047521;28;20033;-67
2021/12/24 05:40:54;;;;;;;5.57;2.97;;;31.30;94.70;;;;;;5046978;28;20032;-68
2021/12/24 05:43:21;;;;;;;5.03;2.45;;;31.90;94.30;;;;;;5047809;28;20025;-71
2021/12/24 05:45:48;;;;;;;6.00;2.70;;;32.10;93.20;;;;;;5062307;22;20068;-69
2021/12/24 05:48:15;;;;;;;5.30;2.50;;;32.30;93.30;;;;;;5025798;28;20180;-67
2021/12/24 05:50:42;;;;;;;6.47;2.70;;;32.50;92.80;;;;;;5025581;28;20520;-71
2021/12/24 05:53:09;;;;;;;5.38;3.13;;;32.50;92.70;;;;;;5024896;28;20029;-67
2021/12/24 05:55:36;;;;;;;6.65;2.50;;;33.10;92.30;;;;;;5026978;28;20060;-68
2021/12/24 05:58:07;;;;;;;8.02;2.60;;;33.20;90.70;;;;;;5023868;28;20037;-70
2021/12/24 06:00:39;;;;;;;5.65;2.58;;;32.70;91.60;;;;;;5023984;28;20607;-66
2021/12/24 06:03:07;;;;;;;6.07;2.63;;;32.20;92.20;;;;;;5025239;28;20108;-64
2021/12/24 06:05:35;;;;;;;6.60;2.60;;;32.00;92.40;;;;;;5025575;28;20040;-65
2021/12/24 06:08:04;;;;;;;7.55;2.30;;;31.70;92.90;;;;;;5022583;28;20392;-66
2021/12/24 06:10:32;;;;;;;6.45;2.30;;;31.70;92.50;;;;;;5023456;28;20030;-67
2021/12/24 06:13:00;;;;;;;7.15;2.80;;;31.40;93.10;;;;;;5022407;28;20036;-64
2021/12/24 06:15:27;;;;;;;4.72;2.30;;;31.40;93.60;;;;;;5022977;28;20034;-65
2021/12/24 06:17:57;;;;;;;5.40;2.50;;;31.50;94.00;;;;;;5023522;28;20030;-64
2021/12/24 06:20:26;;;;;;;5.13;2.60;;;31.60;93.80;;;;;;5020991;28;20553;-64
2021/12/24 06:22:54;;;;;;;7.15;2.45;;;31.30;93.80;;;;;;5022273;28;20029;-67
2021/12/24 06:25:21;;;;;;;6.28;2.10;;;31.20;94.40;;;;;;5022839;28;20029;-64
2021/12/24 06:27:48;;;;;;;5.15;2.63;;;30.80;94.60;;;;;;5023208;28;20120;-66
2021/12/24 06:30:16;;;;;;;5.50;2.28;;;30.20;95.70;;;;;;5024869;28;20289;-68
2021/12/24 06:32:43;;;;;;;4.40;2.35;;;30.00;96.30;;;;;;5024239;28;20535;-68
2021/12/24 06:35:10;;;;;;;6.50;2.70;;;29.70;96.80;;;;;;5023989;28;20356;-65
2021/12/24 06:37:39;;;;;;;5.88;2.55;;;29.90;96.60;;;;;;5021787;28;20033;-68
2021/12/24 06:40:07;;;;;;;8.48;2.88;;;30.30;96.60;;;;;;5025424;28;20026;-68
2021/12/24 06:42:34;;;;;;;8.07;2.67;;;31.00;95.40;;;;;;5022444;28;20026;-70
2021/12/24 06:45:01;;;;;;;7.93;3.13;;;31.80;94.40;;;;;;5022878;28;20125;-66
2021/12/24 06:47:29;;;;;;;5.18;2.60;;;31.90;93.10;;;;;;5021145;28;20044;-68
2021/12/24 06:49:56;;;;;;;4.40;2.15;;;31.70;93.60;;;;;;5038361;28;20516;-66
2021/12/24 06:52:23;;;;;;;5.57;2.22;;;31.60;93.70;;;;;;5023522;28;20091;-67
2021/12/24 06:54:50;;;;;;;8.18;2.65;;;31.60;94.00;;;;;;5023936;28;20108;-68
2021/12/24 06:57:19;;;;;;;6.40;2.35;;;31.50;94.00;;;;;;5023661;28;20340;-67
2021/12/24 06:59:47;;;;;;;5.90;2.65;;;31.60;93.90;;;;;;5023847;28;20108;-64
2021/12/24 07:02:15;;;;;;;7.28;2.20;;;31.30;94.10;;;;;;4326148;28;10000819;-68
2021/12/24 07:04:42;;;;;;;5.05;2.25;;;31.60;94.00;;;;;;5021894;28;20480;-65
2021/12/24 07:07:09;;;;;;;7.10;2.63;;;30.80;94.60;;;;;;5019224;28;20086;-67
2021/12/24 07:09:41;;;;;;;6.93;2.17;;;30.80;95.10;;;;;;5020672;28;20029;-65
2021/12/24 07:12:11;;;;;;;6.85;2.10;;;31.30;94.40;;;;;;5020983;28;20036;-68
2021/12/24 07:14:39;;;;;;;9.15;3.20;;;31.10;94.70;;;;;;5021709;28;20021;-65
2021/12/24 07:17:07;;;;;;;7.45;3.05;;;30.40;95.60;;;;;;5022280;28;20028;-70
2021/12/24 07:19:34;;;;;;;5.13;2.30;;;29.90;96.60;;;;;;5020081;28;20577;-65
2021/12/24 07:22:02;;;;;;;9.32;2.85;;;29.40;98.10;;;;;;5020624;28;20813;-69
2021/12/24 07:24:29;;;;;;;9.40;3.22;;;29.20;98.80;;;;;;5021347;28;20029;-65
2021/12/24 07:26:56;;;;;;;6.45;2.40;;;28.90;99.70;;;;;;5020082;28;20036;-69
2021/12/24 07:29:23;;;;;;;5.45;2.30;;;28.60;99.90;;;;;;5020555;28;20029;-69
2021/12/24 07:31:52;;;;;;;8.70;2.70;;;28.20;99.90;;;;;;5021185;28;20033;-68
2021/12/24 07:34:19;;;;;;;6.63;2.72;;;27.80;99.90;;;;;;5021208;28;20028;-67
2021/12/24 07:36:46;;;;;;;7.82;3.30;;;27.60;99.90;;;;;;5022041;28;20025;-67
2021/12/24 07:39:13;;;;;;;9.30;3.33;;;27.40;99.90;;;;;;5021073;28;20462;-65
2021/12/24 07:41:40;;;;;;;7.18;3.25;;;27.20;99.90;;;;;;5021157;28;20571;-66
2021/12/24 07:44:08;;;;;;;7.47;3.45;;;27.00;99.90;;;;;;5019962;28;20114;-68
2021/12/24 07:46:41;;;;;;;9.00;3.47;;;26.60;99.90;;;;;;5020769;28;20033;-63
2021/12/24 07:52:09;;;;;;;9.68;3.40;;;26.10;99.90;;;;;;5007333;28;20064;-67
2021/12/24 07:54:44;;;;;;;11.68;3.38;;;26.20;99.90;;;;;;5019713;28;20032;-65
2021/12/24 07:57:13;;;;;;;17.80;3.47;;;26.10;99.90;;;;;;5020613;28;20048;-64
2021/12/24 07:59:42;;;;;;;11.63;3.58;;;25.90;99.90;;;;;;5019599;28;20037;-69
2021/12/24 08:02:15;;;;;;;12.93;3.72;;;25.80;99.90;;;;;;5019512;28;20570;-67
2021/12/24 08:04:44;;;;;;;10.05;3.78;;;25.60;99.90;;;;;;5010243;28;20033;-64
2021/12/24 08:07:14;;;;;;;10.93;3.78;;;25.40;99.90;;;;;;5018306;28;20965;-66
2021/12/24 08:09:42;;;;;;;8.15;3.30;;;25.30;99.90;;;;;;5018048;28;20032;-66
2021/12/24 08:12:11;;;;;;;11.95;4.68;;;25.20;99.90;;;;;;5016230;28;20033;-66
2021/12/24 08:14:39;;;;;;;10.43;3.95;;;25.10;99.90;;;;;;5017481;28;20042;-66
2021/12/24 08:17:07;;;;;;;7.75;4.20;;;25.10;99.90;;;;;;5017634;28;20512;-66
2021/12/24 08:19:34;;;;;;;10.52;3.50;;;25.10;99.90;;;;;;5014014;28;20515;-65
2021/12/24 08:22:02;;;;;;;8.65;3.28;;;25.10;99.90;;;;;;5018416;28;20025;-66
2021/12/24 08:24:30;;;;;;;9.95;3.90;;;24.90;99.90;;;;;;5017612;28;20038;-68
2021/12/24 08:26:58;;;;;;;10.10;4.50;;;24.80;99.90;;;;;;5017982;28;20037;-66
2021/12/24 08:29:25;;;;;;;7.45;3.45;;;24.70;99.90;;;;;;5018419;28;20029;-63
2021/12/24 08:31:54;;;;;;;10.18;3.58;;;24.70;99.90;;;;;;5017149;28;20021;-65
2021/12/24 08:34:21;;;;;;;9.63;3.58;;;24.60;99.90;;;;;;5018545;28;20017;-69
2021/12/24 08:36:50;;;;;;;9.40;4.00;;;24.60;99.90;;;;;;5017017;28;20116;-67
2021/12/24 08:39:19;;;;;;;12.27;3.95;;;24.60;99.90;;;;;;5018056;28;20296;-69
2021/12/24 08:41:49;;;;;;;14.38;4.22;;;24.60;99.90;;;;;;5019133;28;20033;-68
2021/12/24 08:44:16;;;;;;;8.35;4.70;;;24.60;99.90;;;;;;5018189;28;20042;-67
2021/12/24 08:46:43;;;;;;;11.52;5.35;;;24.70;99.90;;;;;;5016140;28;20471;-68
2021/12/24 08:49:11;;;;;;;9.80;6.00;;;24.70;99.90;;;;;;5017561;28;20029;-69
2021/12/24 08:51:38;;;;;;;8.52;4.03;;;24.70;99.90;;;;;;5017962;28;20132;-69
2021/12/24 08:54:05;;;;;;;8.10;3.08;;;24.70;99.90;;;;;;5018685;28;20306;-68
2021/12/24 08:56:32;;;;;;;9.23;4.25;;;24.70;99.90;;;;;;5018792;28;20129;-70
2021/12/24 08:58:59;;;;;;;7.85;3.78;;;24.70;99.90;;;;;;5016329;28;20083;-72
2021/12/24 09:01:26;;;;;;;11.68;3.65;;;24.70;99.90;;;;;;5015281;28;20295;-70
2021/12/24 09:03:53;;;;;;;9.85;3.80;;;24.60;99.90;;;;;;5017583;28;20025;-67
2021/12/24 09:06:20;;;;;;;12.82;4.13;;;24.50;99.90;;;;;;5016698;28;20029;-69
2021/12/24 09:08:47;;;;;;;11.20;4.20;;;24.40;99.90;;;;;;5017840;28;20408;-69
2021/12/24 09:11:14;;;;;;;9.93;3.55;;;24.20;99.90;;;;;;5017075;28;20033;-69
2021/12/24 09:13:41;;;;;;;7.85;4.25;;;24.20;99.90;;;;;;5014330;28;20049;-67
2021/12/24 09:16:08;;;;;;;7.72;4.03;;;24.10;99.90;;;;;;5020894;28;20026;-71
2021/12/24 09:18:38;;;;;;;12.02;4.53;;;24.10;99.90;;;;;;5020734;28;20028;-69
2021/12/24 09:21:13;;;;;;;9.13;4.03;;;24.00;99.90;;;;;;5021620;28;20028;-65
2021/12/24 09:23:42;;;;;;;8.18;3.38;;;23.90;99.90;;;;;;5036806;28;20482;-72
2021/12/24 09:26:09;;;;;;;8.77;3.92;;;23.90;99.90;;;;;;5018209;28;20033;-72
2021/12/24 09:28:36;;;;;;;7.72;3.95;;;23.90;99.90;;;;;;5020127;28;20033;-69
2021/12/24 09:31:03;;;;;;;13.63;4.32;;;23.80;99.90;;;;;;5014521;28;20736;-70
2021/12/24 09:33:30;;;;;;;8.77;4.18;;;23.70;99.90;;;;;;5017199;28;20660;-66
2021/12/24 09:35:58;;;;;;;10.45;3.63;;;23.60;99.90;;;;;;5014234;28;20293;-67
2021/12/24 09:38:25;;;;;;;11.13;4.45;;;23.60;99.90;;;;;;5014634;28;20499;-72
2021/12/24 09:40:53;;;;;;;8.35;3.72;;;23.60;99.90;;;;;;5012993;28;20037;-74
2021/12/24 09:43:20;;;;;;;11.98;4.10;;;23.60;99.90;;;;;;5013816;28;20459;-73
2021/12/24 09:45:47;;;;;;;9.88;4.07;;;23.60;99.90;;;;;;5014064;28;20273;-72
2021/12/24 09:48:14;;;;;;;12.80;4.10;;;23.50;99.90;;;;;;5013172;28;20037;-67
2021/12/24 09:50:41;;;;;;;10.98;3.90;;;23.60;99.90;;;;;;5014088;28;20127;-68
2021/12/24 09:53:08;;;;;;;13.07;4.20;;;23.60;99.90;;;;;;5019862;28;20037;-68
2021/12/24 09:55:35;;;;;;;9.90;4.30;;;23.50;99.90;;;;;;5017660;28;20075;-73
2021/12/24 09:58:02;;;;;;;10.93;4.05;;;23.50;99.90;;;;;;5021674;28;20116;-69
2021/12/24 10:00:29;;;;;;;10.88;4.32;;;23.50;99.90;;;;;;5019651;28;20096;-72
2021/12/24 10:02:59;;;;;;;10.57;4.40;;;23.50;99.90;;;;;;5018387;28;20032;-67
2021/12/24 10:05:54;;;;;;;8.70;3.50;;;23.50;99.90;;;;;;5024309;28;20085;-66
2021/12/24 10:08:24;;;;;;;10.75;4.13;;;23.50;99.90;;;;;;5019055;28;20512;-66
2021/12/24 10:10:59;;;;;;;9.13;4.18;;;23.50;99.90;;;;;;5017460;28;20040;-69
2021/12/24 10:13:43;;;;;;;9.00;4.43;;;23.50;99.90;;;;;;5020516;28;20029;-68
2021/12/24 10:16:22;;;;;;;12.90;5.00;;;23.50;99.90;;;;;;5023896;28;20547;-67
2021/12/24 10:18:52;;;;;;;13.23;4.50;;;23.40;99.90;;;;;;5020415;28;20472;-66
2021/12/24 10:21:25;;;;;;;9.35;4.43;;;23.40;99.90;;;;;;5018605;28;20049;-69
2021/12/24 10:24:01;;;;;;;7.68;4.28;;;23.40;99.90;;;;;;5037522;28;20068;-68
2021/12/24 10:26:31;;;;;;;8.98;4.22;;;23.30;99.90;;;;;;5022822;28;20367;-68
2021/12/24 10:29:07;;;;;;;10.63;3.83;;;23.30;99.90;;;;;;5021597;28;20034;-68
2021/12/24 10:31:52;;;;;;;8.13;4.13;;;23.30;99.90;;;;;;5015976;28;20453;-68
2021/12/24 10:34:34;;;;;;;8.90;4.07;;;23.20;99.90;;;;;;5022056;28;20025;-69
2021/12/24 10:37:13;;;;;;;9.38;4.57;;;23.20;99.90;;;;;;5016009;28;20026;-71
2021/12/24 10:39:59;;;;;;;11.75;4.55;;;23.10;99.90;;;;;;5022451;28;20029;-69
2021/12/24 10:42:39;;;;;;;12.23;4.35;;;23.20;99.90;;;;;;5018347;28;20029;-67
2021/12/24 10:45:17;;;;;;;13.43;4.38;;;23.20;99.90;;;;;;5022210;28;20570;-67
2021/12/24 10:47:45;;;;;;;13.50;4.93;;;23.30;99.90;;;;;;5020942;28;20072;-67
2021/12/24 10:53:16;;;;;;;10.48;4.55;;;23.30;99.90;;;;;;5023186;28;20528;-65
2021/12/24 10:55:53;;;;;;;8.30;5.10;;;23.30;99.90;;;;;;5022163;28;20103;-65
2021/12/24 10:58:23;;;;;;;10.07;4.22;;;23.20;99.90;;;;;;5019571;28;20302;-64
2021/12/24 11:00:54;;;;;;;9.82;5.30;;;23.20;99.90;;;;;;5023373;28;20448;-68
2021/12/24 11:03:25;;;;;;;11.00;5.28;;;23.20;99.90;;;;;;5020336;28;20035;-68
2021/12/24 11:06:08;;;;;;;8.07;4.70;;;23.20;99.90;;;;;;5018317;28;20034;-68
2021/12/24 11:08:37;;;;;;;11.45;4.72;;;23.10;99.90;;;;;;5020930;28;20115;-67
2021/12/24 11:11:07;;;;;;;12.20;5.13;;;23.20;99.90;;;;;;5021133;28;20136;-67
2021/12/24 11:13:41;;;;;;;12.73;4.85;;;23.10;99.90;;;;;;5017076;28;20041;-65
2021/12/24 11:16:30;;;;;;;16.17;5.57;;;23.10;99.90;;;;;;5023378;28;20484;-66
2021/12/24 11:19:00;;;;;;;12.15;4.95;;;23.10;99.90;;;;;;5022935;28;20354;-69
2021/12/24 11:21:29;;;;;;;12.80;5.15;;;23.10;99.90;;;;;;5024910;28;20018;-69
2021/12/24 11:23:56;;;;;;;11.02;5.40;;;23.10;99.90;;;;;;5024826;28;20021;-70
2021/12/24 11:26:29;;;;;;;11.75;5.10;;;23.20;99.90;;;;;;5020786;28;20033;-68
2021/12/24 11:28:57;;;;;;;12.02;4.63;;;23.20;99.90;;;;;;5023331;28;20045;-77
2021/12/24 11:31:28;;;;;;;13.13;5.25;;;23.20;99.90;;;;;;5016965;28;20026;-75
2021/12/24 11:33:58;;;;;;;9.05;4.85;;;23.10;99.90;;;;;;5025386;28;20021;-67
2021/12/24 11:36:28;;;;;;;13.30;5.15;;;23.10;99.90;;;;;;5022825;28;20555;-75
2021/12/24 11:39:08;;;;;;;11.27;5.05;;;23.10;99.90;;;;;;5023555;28;20030;-75
2021/12/24 11:41:37;;;;;;;11.05;5.15;;;23.10;99.90;;;;;;5022929;28;20497;-66
2021/12/24 11:44:07;;;;;;;13.20;4.90;;;23.00;99.90;;;;;;5025310;28;20057;-67
2021/12/24 11:46:39;;;;;;;11.75;5.30;;;23.00;99.90;;;;;;5022412;28;20041;-67
2021/12/24 11:49:06;;;;;;;11.63;5.22;;;22.80;99.90;;;;;;5025665;28;20053;-68
2021/12/24 11:51:42;;;;;;;12.38;5.00;;;22.90;99.90;;;;;;5023453;28;20048;-68
2021/12/24 11:54:13;;;;;;;13.38;4.80;;;22.90;99.90;;;;;;5025113;28;20084;-75
2021/12/24 11:56:54;;;;;;;13.43;5.80;;;22.80;99.90;;;;;;5022708;28;20029;-69
2021/12/24 11:59:41;;;;;;;12.80;6.03;;;22.70;99.90;;;;;;5024383;28;20367;-66
2021/12/24 12:02:08;;;;;;;13.10;5.53;;;22.70;99.90;;;;;;5021747;28;20444;-69
2021/12/24 12:04:35;;;;;;;9.88;5.40;;;22.60;99.90;;;;;;5020565;28;20025;-68
2021/12/24 12:07:25;;;;;;;10.43;4.82;;;22.70;99.90;;;;;;5019725;28;20424;-68
2021/12/24 12:09:52;;;;;;;13.73;5.68;;;22.70;99.90;;;;;;5024389;28;20447;-68
2021/12/24 12:12:33;;;;;;;11.85;5.13;;;22.60;99.90;;;;;;5022040;28;20024;-76
2021/12/24 12:15:22;;;;;;;12.50;5.28;;;22.60;99.90;;;;;;5023839;28;20033;-66
2021/12/24 12:18:04;;;;;;;14.85;5.85;;;22.50;99.90;;;;;;5039422;28;20030;-74
2021/12/24 12:20:47;;;;;;;11.45;5.47;;;22.50;99.90;;;;;;5020878;28;20030;-69
2021/12/24 12:24:56;;;;;;;11.90;5.55;;;22.50;99.90;;;;;;5023814;28;20029;-74
2021/12/24 12:26:49;;;;;;;15.70;5.65;;;22.50;99.90;;;;;;5023078;28;20048;-66
2021/12/24 12:29:20;;;;;;;16.25;6.57;;;22.40;99.90;;;;;;5020450;28;20412;-66
2021/12/24 12:32:24;;;;;;;14.25;5.85;;;22.40;99.90;;;;;;5021199;28;20373;-68
2021/12/24 12:34:56;;;;;;;10.25;4.88;;;22.40;99.90;;;;;;5024627;28;20268;-68
2021/12/24 12:37:40;;;;;;;12.63;5.82;;;22.40;99.90;;;;;;5024472;28;20028;-66
2021/12/24 12:40:13;;;;;;;14.25;5.35;;;22.40;99.90;;;;;;5025185;28;20034;-68
2021/12/24 12:43:02;;;;;;;10.95;5.63;;;22.30;99.90;;;;;;5024964;28;20041;-74
2021/12/24 12:45:36;;;;;;;18.48;6.00;;;22.30;99.90;;;;;;5022090;28;20045;-74
2021/12/24 12:48:06;;;;;;;10.90;5.50;;;22.20;99.90;;;;;;5021155;28;20109;-69
2021/12/24 12:50:34;;;;;;;13.88;5.15;;;22.10;99.90;;;;;;5023135;28;20455;-69
2021/12/24 12:53:23;;;;;;;16.27;6.25;;;22.10;99.90;;;;;;5023876;28;20037;-75
2021/12/24 12:56:08;;;;;;;11.63;5.55;;;22.00;99.90;;;;;;5017325;28;20132;-65
2021/12/24 12:58:36;;;;;;;14.18;5.70;;;22.00;99.90;;;;;;5025103;28;20406;-68
2021/12/24 13:01:06;;;;;;;13.65;5.70;;;21.90;99.90;;;;;;5020467;28;20030;-75
2021/12/24 13:03:54;;;;;;;15.38;5.95;;;21.90;99.90;;;;;;5020962;28;20578;-69
2021/12/24 13:06:21;;;;;;;14.07;6.43;;;21.90;99.90;;;;;;5025603;28;20065;-67
2021/12/24 13:08:49;;;;;;;15.10;5.97;;;21.90;99.90;;;;;;5026085;28;20063;-67
2021/12/24 13:11:20;;;;;;;13.73;6.03;;;21.90;99.90;;;;;;5026575;28;20705;-73
2021/12/24 13:14:06;;;;;;;11.63;5.93;;;21.80;99.90;;;;;;5025431;28;20736;-67
2021/12/24 13:17:25;;;;;;;16.42;6.13;;;21.90;99.90;;;;;;5025805;28;20025;-73
2021/12/24 13:25:02;;;;;;;16.90;6.20;;;21.80;99.90;;;;;;5027280;28;20067;-67
2021/12/24 13:27:33;;;;;;;12.35;4.95;;;21.80;99.90;;;;;;5026527;28;20044;-67
2021/12/24 13:30:14;;;;;;;13.90;5.38;;;21.80;99.90;;;;;;5017254;28;20060;-67
2021/12/24 13:32:43;;;;;;;11.73;5.10;;;21.80;99.90;;;;;;5025245;28;20132;-65
2021/12/24 13:35:12;;;;;;;12.05;6.03;;;21.80;99.90;;;;;;5029134;28;20017;-68
2021/12/24 13:37:45;;;;;;;16.65;5.60;;;21.80;99.90;;;;;;5027701;28;20018;-67
2021/12/24 13:40:20;;;;;;;12.27;5.22;;;21.80;99.90;;;;;;5028872;28;20104;-65
2021/12/24 13:42:56;;;;;;;10.68;6.13;;;21.80;99.90;;;;;;5026382;28;20036;-67
2021/12/24 13:45:25;;;;;;;14.50;5.95;;;21.80;99.90;;;;;;5027115;28;20041;-68
2021/12/24 13:48:06;;;;;;;14.55;5.00;;;21.80;99.90;;;;;;5027871;28;20514;-68
2021/12/24 13:56:26;;;;;;;12.52;5.57;;;21.60;99.90;;;;;;5026282;28;20040;-68
2021/12/24 13:58:58;;;;;;;14.20;6.28;;;21.60;99.90;;;;;;5022963;28;20029;-66
2021/12/24 14:01:28;;;;;;;17.25;5.43;;;21.70;99.90;;;;;;5027621;28;20060;-66
2021/12/24 14:03:55;;;;;;;11.75;5.85;;;21.60;99.90;;;;;;5027435;28;20033;-75
2021/12/24 14:06:33;;;;;;;11.85;5.40;;;21.50;99.90;;;;;;5028013;28;20135;-75
2021/12/24 14:09:22;;;;;;;15.38;5.47;;;21.40;99.90;;;;;;5027668;28;20112;-66
2021/12/24 14:11:53;;;;;;;17.17;6.25;;;21.30;99.90;;;;;;5029244;28;20033;-68
2021/12/24 14:14:31;;;;;;;13.30;5.80;;;21.30;99.90;;;;;;5030873;28;20491;-68
2021/12/24 14:19:47;;;;;;;10.38;5.38;;;21.20;99.90;;;;;;5028307;28;20570;-68
2021/12/24 14:22:16;;;;;;;17.80;6.25;;;21.10;99.90;;;;;;5025139;28;20068;-69
2021/12/24 14:25:07;;;;;;;16.55;6.07;;;21.00;99.90;;;;;;5030784;28;20104;-68
2021/12/24 14:27:37;;;;;;;12.32;5.15;;;21.00;99.90;;;;;;5031248;28;20128;-75
2021/12/24 14:30:08;;;;;;;13.88;6.07;;;20.90;99.90;;;;;;5030141;28;20128;-66
2021/12/24 14:32:38;;;;;;;11.75;5.38;;;20.90;99.90;;;;;;5029443;28;20384;-68
2021/12/24 14:35:23;;;;;;;12.45;6.45;;;20.80;99.90;;;;;;5030769;28;20027;-68
2021/12/24 14:37:58;;;;;;;16.42;6.03;;;20.80;99.90;;;;;;5026006;28;20026;-69
2021/12/24 14:40:27;;;;;;;11.73;5.97;;;20.80;99.90;;;;;;5045548;28;20357;-66
2021/12/24 14:42:55;;;;;;;11.18;5.53;;;20.90;99.90;;;;;;5029086;28;20108;-68
2021/12/24 14:45:41;;;;;;;13.05;5.85;;;20.80;99.90;;;;;;5022940;28;20091;-68
2021/12/24 14:48:09;;;;;;;12.43;6.03;;;20.70;99.90;;;;;;5030521;28;20537;-66
2021/12/24 14:51:05;;;;;;;16.45;6.22;;;20.60;99.90;;;;;;5030048;28;20040;-69
2021/12/24 14:53:38;;;;;;;13.50;5.80;;;20.50;99.90;;;;;;5028675;28;20326;-68
2021/12/24 14:56:10;;;;;;;20.17;6.07;;;20.50;99.90;;;;;;5026035;28;20110;-66
2021/12/24 14:58:38;;;;;;;;;;;20.50;99.90;;;;;;5024832;28;20362;-75
2021/12/24 15:01:10;;;;;;;15.43;5.95;;;20.40;99.90;;;;;;5029779;28;19920;-76
2021/12/24 15:03:40;;;;;;;20.95;7.65;;;20.40;99.90;;;;;;5030286;28;20131;-66